createdAt,value
2018-09-09T00:00:57.729Z,0.00
2018-09-09T00:01:57.730Z,0.00
2018-09-09T00:02:57.729Z,0.00
2018-09-09T00:03:57.729Z,0.00
2018-09-09T00:04:57.728Z,0.00
2018-09-09T00:05:57.725Z,0.00
2018-09-09T00:06:57.723Z,0.00
2018-09-09T00:07:57.724Z,0.00
2018-09-09T00:08:57.721Z,0.00
2018-09-09T00:09:57.720Z,0.00
2018-09-09T00:10:57.718Z,0.00
2018-09-09T00:11:57.718Z,0.00
2018-09-09T00:12:57.716Z,0.00
2018-09-09T00:13:57.714Z,0.00
2018-09-09T00:14:57.715Z,0.00
2018-09-09T00:15:57.713Z,0.00
2018-09-09T00:16:57.713Z,0.00
2018-09-09T00:17:57.711Z,0.00
2018-09-09T00:18:57.709Z,0.00
2018-09-09T00:19:57.707Z,0.00
2018-09-09T00:20:57.706Z,0.00
2018-09-09T00:21:57.704Z,0.00
2018-09-09T00:22:57.704Z,0.00
2018-09-09T00:23:57.703Z,0.00
2018-09-09T00:24:57.702Z,0.00
2018-09-09T00:25:57.699Z,0.00
2018-09-09T00:26:57.704Z,0.00
2018-09-09T00:27:57.698Z,0.00
2018-09-09T00:28:57.696Z,0.00
2018-09-09T00:29:57.694Z,0.00
2018-09-09T00:30:57.699Z,0.00
2018-09-09T00:31:57.693Z,0.00
2018-09-09T00:32:57.690Z,0.00
2018-09-09T00:33:57.690Z,0.00
2018-09-09T00:34:57.692Z,0.00
2018-09-09T00:35:57.690Z,0.00
2018-09-09T00:36:57.684Z,0.00
2018-09-09T00:37:57.684Z,0.00
2018-09-09T00:38:57.682Z,0.00
2018-09-09T00:39:57.681Z,0.00
2018-09-09T00:40:57.679Z,0.00
2018-09-09T00:41:57.678Z,0.00
2018-09-09T00:42:57.676Z,0.00
2018-09-09T00:43:57.674Z,0.00
2018-09-09T00:44:57.671Z,0.00
2018-09-09T00:45:57.673Z,0.00
2018-09-09T00:46:57.673Z,0.00
2018-09-09T00:47:57.669Z,0.00
2018-09-09T00:48:57.667Z,0.00
2018-09-09T00:49:57.667Z,0.00
2018-09-09T00:50:57.664Z,0.00
2018-09-09T00:51:57.663Z,0.00
2018-09-09T00:52:57.664Z,0.00
2018-09-09T00:53:57.664Z,0.00
2018-09-09T00:54:57.662Z,0.00
2018-09-09T00:55:57.658Z,0.00
2018-09-09T00:56:57.656Z,0.00
2018-09-09T00:57:57.652Z,0.00
2018-09-09T00:58:57.654Z,0.00
2018-09-09T00:59:57.653Z,0.00
2018-09-09T01:00:57.647Z,0.00
2018-09-09T01:01:57.647Z,0.00
2018-09-09T01:02:57.647Z,0.00
2018-09-09T01:03:57.645Z,0.00
2018-09-09T01:04:57.643Z,0.00
2018-09-09T01:05:57.641Z,0.00
2018-09-09T01:06:57.640Z,0.00
2018-09-09T01:07:57.639Z,0.00
2018-09-09T01:08:57.638Z,0.00
2018-09-09T01:09:57.635Z,0.00
2018-09-09T01:10:57.633Z,0.00
2018-09-09T01:11:57.632Z,0.00
2018-09-09T01:12:57.631Z,0.00
2018-09-09T01:13:57.629Z,0.00
2018-09-09T01:14:57.629Z,0.00
2018-09-09T01:15:57.627Z,0.00
2018-09-09T01:16:57.625Z,0.00
2018-09-09T01:17:57.623Z,0.00
2018-09-09T01:18:57.624Z,0.00
2018-09-09T01:19:57.622Z,0.00
2018-09-09T01:20:57.619Z,0.00
2018-09-09T01:21:57.616Z,0.00
2018-09-09T01:22:57.617Z,0.00
2018-09-09T01:23:57.615Z,0.00
2018-09-09T01:24:57.611Z,0.00
2018-09-09T01:25:57.610Z,0.00
2018-09-09T01:26:57.610Z,0.00
2018-09-09T01:27:57.607Z,0.00
2018-09-09T01:28:57.608Z,0.00
2018-09-09T01:29:57.605Z,0.00
2018-09-09T01:30:57.649Z,0.00
2018-09-09T01:31:57.608Z,0.00
2018-09-09T01:32:57.603Z,0.00
2018-09-09T01:33:57.597Z,0.00
2018-09-09T01:34:57.596Z,0.00
2018-09-09T01:35:57.595Z,0.00
2018-09-09T01:36:57.592Z,0.00
2018-09-09T01:37:57.592Z,0.00
2018-09-09T01:38:57.590Z,0.00
2018-09-09T01:39:57.589Z,0.00
2018-09-09T01:40:57.586Z,0.00
2018-09-09T01:41:57.592Z,0.00
2018-09-09T01:42:57.585Z,0.00
2018-09-09T01:43:57.581Z,0.00
2018-09-09T01:44:57.582Z,0.00
2018-09-09T01:45:57.583Z,0.00
2018-09-09T01:46:57.577Z,0.00
2018-09-09T01:47:57.576Z,0.00
2018-09-09T01:48:57.573Z,0.00
2018-09-09T01:49:57.572Z,0.00
2018-09-09T01:50:57.571Z,0.00
2018-09-09T01:51:57.570Z,0.00
2018-09-09T01:52:57.567Z,0.00
2018-09-09T01:53:57.566Z,0.00
2018-09-09T01:54:57.564Z,0.00
2018-09-09T01:55:57.563Z,0.00
2018-09-09T01:56:57.560Z,0.00
2018-09-09T01:57:57.558Z,0.00
2018-09-09T01:58:57.558Z,0.00
2018-09-09T01:59:57.557Z,0.00
2018-09-09T02:00:57.554Z,0.00
2018-09-09T02:01:57.553Z,0.00
2018-09-09T02:02:57.552Z,0.00
2018-09-09T02:03:57.551Z,0.00
2018-09-09T02:04:57.548Z,0.00
2018-09-09T02:05:57.547Z,0.00
2018-09-09T02:06:57.545Z,0.00
2018-09-09T02:07:57.544Z,0.00
2018-09-09T02:08:57.543Z,0.00
2018-09-09T02:09:57.540Z,0.00
2018-09-09T02:10:57.539Z,0.00
2018-09-09T02:11:57.538Z,0.00
2018-09-09T02:12:57.539Z,0.00
2018-09-09T02:13:57.537Z,0.00
2018-09-09T02:14:57.533Z,0.00
2018-09-09T02:15:57.532Z,0.00
2018-09-09T02:16:57.528Z,0.00
2018-09-09T02:17:57.528Z,0.00
2018-09-09T02:18:57.526Z,0.00
2018-09-09T02:19:57.529Z,0.00
2018-09-09T02:20:57.522Z,0.00
2018-09-09T02:21:57.522Z,0.00
2018-09-09T02:22:57.520Z,0.00
2018-09-09T02:23:57.517Z,0.00
2018-09-09T02:24:57.515Z,0.00
2018-09-09T02:25:57.589Z,0.00
2018-09-09T02:26:57.513Z,0.00
2018-09-09T02:27:57.513Z,0.00
2018-09-09T02:28:57.510Z,0.00
2018-09-09T02:29:57.509Z,0.00
2018-09-09T02:30:57.507Z,0.00
2018-09-09T02:31:57.507Z,0.00
2018-09-09T02:32:57.503Z,0.00
2018-09-09T02:33:57.501Z,0.00
2018-09-09T02:34:57.501Z,0.00
2018-09-09T02:35:57.500Z,0.00
2018-09-09T02:36:57.497Z,0.00
2018-09-09T02:37:57.500Z,0.00
2018-09-09T02:38:57.496Z,0.00
2018-09-09T02:39:57.493Z,0.00
2018-09-09T02:40:57.492Z,0.00
2018-09-09T02:41:57.492Z,0.00
2018-09-09T02:42:57.488Z,0.00
2018-09-09T02:43:57.488Z,0.00
2018-09-09T02:44:57.486Z,0.00
2018-09-09T02:45:57.485Z,0.00
2018-09-09T02:46:57.484Z,0.00
2018-09-09T02:47:57.483Z,0.00
2018-09-09T02:48:57.479Z,0.00
2018-09-09T02:49:57.478Z,0.00
2018-09-09T02:50:57.477Z,0.00
2018-09-09T02:51:57.475Z,0.00
2018-09-09T02:52:57.473Z,0.00
2018-09-09T02:53:57.472Z,0.00
2018-09-09T02:54:57.476Z,0.00
2018-09-09T02:55:57.469Z,0.00
2018-09-09T02:56:57.466Z,0.00
2018-09-09T02:57:57.464Z,0.00
2018-09-09T02:58:57.467Z,0.00
2018-09-09T02:59:57.463Z,0.00
2018-09-09T03:00:57.463Z,0.00
2018-09-09T03:01:57.459Z,0.00
2018-09-09T03:02:57.457Z,0.00
2018-09-09T03:03:57.458Z,0.00
2018-09-09T03:04:57.454Z,0.00
2018-09-09T03:05:57.451Z,0.00
2018-09-09T03:06:57.450Z,0.00
2018-09-09T03:07:57.449Z,0.00
2018-09-09T03:08:57.447Z,0.00
2018-09-09T03:09:57.448Z,0.00
2018-09-09T03:10:57.445Z,0.00
2018-09-09T03:11:57.449Z,0.00
2018-09-09T03:12:57.441Z,0.00
2018-09-09T03:13:57.439Z,0.00
2018-09-09T03:14:57.438Z,0.00
2018-09-09T03:15:57.438Z,0.00
2018-09-09T03:16:57.435Z,0.00
2018-09-09T03:17:57.435Z,0.00
2018-09-09T03:18:57.431Z,0.00
2018-09-09T03:19:57.430Z,0.00
2018-09-09T03:20:57.428Z,0.00
2018-09-09T03:21:57.427Z,0.00
2018-09-09T03:22:57.425Z,0.00
2018-09-09T03:23:57.424Z,0.00
2018-09-09T03:24:57.423Z,0.00
2018-09-09T03:25:57.420Z,0.00
2018-09-09T03:26:57.427Z,0.00
2018-09-09T03:27:57.418Z,0.00
2018-09-09T03:28:57.416Z,0.00
2018-09-09T03:29:57.415Z,0.00
2018-09-09T03:30:57.417Z,0.00
2018-09-09T03:31:57.411Z,0.00
2018-09-09T03:32:57.449Z,0.00
2018-09-09T03:33:57.414Z,0.00
2018-09-09T03:34:57.407Z,0.00
2018-09-09T03:35:57.406Z,0.00
2018-09-09T03:36:57.403Z,0.00
2018-09-09T03:37:57.402Z,0.00
2018-09-09T03:38:57.401Z,0.00
2018-09-09T03:39:57.400Z,0.00
2018-09-09T03:40:57.398Z,0.00
2018-09-09T03:41:57.397Z,0.00
2018-09-09T03:42:57.393Z,0.00
2018-09-09T03:43:57.391Z,0.00
2018-09-09T03:44:57.391Z,0.00
2018-09-09T03:45:57.389Z,0.00
2018-09-09T03:46:57.387Z,0.00
2018-09-09T03:47:57.386Z,0.00
2018-09-09T03:48:57.383Z,0.00
2018-09-09T03:49:57.383Z,0.00
2018-09-09T03:50:57.381Z,0.00
2018-09-09T03:51:57.380Z,0.00
2018-09-09T03:52:57.376Z,0.00
2018-09-09T03:53:57.376Z,0.00
2018-09-09T03:54:57.375Z,0.00
2018-09-09T03:55:57.374Z,0.00
2018-09-09T03:56:57.373Z,0.00
2018-09-09T03:57:57.369Z,0.00
2018-09-09T03:58:57.368Z,0.00
2018-09-09T03:59:57.368Z,0.00
2018-09-09T04:00:57.365Z,0.00
2018-09-09T04:01:57.365Z,0.00
2018-09-09T04:02:57.362Z,0.00
2018-09-09T04:03:57.361Z,0.00
2018-09-09T04:04:57.359Z,0.00
2018-09-09T04:05:57.358Z,0.00
2018-09-09T04:06:57.356Z,0.00
2018-09-09T04:07:57.355Z,0.00
2018-09-09T04:08:57.354Z,0.00
2018-09-09T04:09:57.369Z,0.00
2018-09-09T04:10:57.350Z,0.00
2018-09-09T04:11:57.357Z,0.00
2018-09-09T04:12:57.346Z,0.00
2018-09-09T04:13:57.345Z,0.00
2018-09-09T04:14:57.345Z,0.00
2018-09-09T04:15:57.343Z,0.00
2018-09-09T04:16:57.340Z,0.00
2018-09-09T04:17:57.339Z,0.00
2018-09-09T04:18:57.337Z,0.00
2018-09-09T04:19:57.336Z,0.00
2018-09-09T04:20:57.334Z,0.00
2018-09-09T04:21:57.334Z,0.00
2018-09-09T04:22:57.330Z,0.00
2018-09-09T04:23:57.330Z,0.00
2018-09-09T04:24:57.329Z,0.00
2018-09-09T04:25:57.337Z,0.00
2018-09-09T04:26:57.327Z,4.00
2018-09-09T04:27:57.323Z,4.00
2018-09-09T04:28:57.322Z,0.00
2018-09-09T04:29:57.320Z,4.00
2018-09-09T04:30:57.342Z,8.00
2018-09-09T04:31:57.317Z,4.00
2018-09-09T04:32:57.317Z,4.00
2018-09-09T04:33:57.323Z,8.00
2018-09-09T04:34:57.312Z,8.00
2018-09-09T04:35:57.312Z,12.00
2018-09-09T04:36:57.309Z,16.00
2018-09-09T04:37:57.308Z,16.00
2018-09-09T04:38:57.306Z,16.00
2018-09-09T04:39:57.306Z,16.00
2018-09-09T04:40:57.303Z,16.00
2018-09-09T04:41:57.301Z,20.00
2018-09-09T04:42:57.301Z,24.00
2018-09-09T04:43:57.300Z,24.00
2018-09-09T04:44:57.297Z,28.00
2018-09-09T04:45:57.295Z,32.00
2018-09-09T04:46:57.295Z,40.00
2018-09-09T04:47:57.294Z,44.00
2018-09-09T04:48:57.291Z,48.00
2018-09-09T04:49:57.291Z,60.00
2018-09-09T04:50:57.288Z,68.00
2018-09-09T04:51:57.286Z,76.00
2018-09-09T04:52:57.284Z,88.00
2018-09-09T04:53:57.284Z,92.00
2018-09-09T04:54:57.281Z,96.00
2018-09-09T04:55:57.279Z,108.00
2018-09-09T04:56:57.278Z,112.00
2018-09-09T04:57:57.278Z,116.00
2018-09-09T04:58:57.275Z,116.00
2018-09-09T04:59:57.275Z,124.00
2018-09-09T05:00:57.272Z,132.00
2018-09-09T05:01:57.270Z,140.00
2018-09-09T05:02:57.269Z,144.00
2018-09-09T05:03:57.269Z,152.00
2018-09-09T05:04:57.266Z,156.00
2018-09-09T05:05:57.264Z,160.00
2018-09-09T05:06:57.263Z,164.00
2018-09-09T05:07:57.262Z,172.00
2018-09-09T05:08:57.258Z,180.00
2018-09-09T05:09:57.258Z,180.00
2018-09-09T05:10:57.256Z,188.00
2018-09-09T05:11:57.256Z,188.00
2018-09-09T05:12:57.252Z,196.00
2018-09-09T05:13:57.251Z,200.00
2018-09-09T05:14:57.250Z,204.00
2018-09-09T05:15:57.249Z,212.00
2018-09-09T05:16:57.247Z,212.00
2018-09-09T05:17:57.244Z,216.00
2018-09-09T05:18:57.244Z,216.00
2018-09-09T05:19:57.241Z,224.00
2018-09-09T05:20:57.240Z,232.00
2018-09-09T05:21:57.241Z,252.00
2018-09-09T05:22:57.236Z,280.00
2018-09-09T05:23:57.236Z,320.00
2018-09-09T05:24:57.231Z,376.00
2018-09-09T05:25:57.233Z,460.00
2018-09-09T05:26:57.278Z,556.00
2018-09-09T05:27:57.230Z,628.00
2018-09-09T05:28:57.229Z,700.00
2018-09-09T05:29:57.229Z,736.00
2018-09-09T05:30:57.225Z,756.00
2018-09-09T05:31:57.223Z,804.00
2018-09-09T05:32:57.220Z,880.00
2018-09-09T05:33:57.221Z,916.00
2018-09-09T05:34:57.219Z,960.00
2018-09-09T05:35:57.217Z,932.00
2018-09-09T05:36:57.216Z,912.00
2018-09-09T05:37:57.216Z,920.00
2018-09-09T05:38:57.212Z,956.00
2018-09-09T05:39:57.211Z,1012.00
2018-09-09T05:40:57.209Z,1072.00
2018-09-09T05:41:57.209Z,1140.00
2018-09-09T05:42:57.208Z,1200.00
2018-09-09T05:43:57.206Z,1264.00
2018-09-09T05:44:57.204Z,1304.00
2018-09-09T05:45:57.250Z,1356.00
2018-09-09T05:46:57.201Z,1404.00
2018-09-09T05:47:57.201Z,1376.00
2018-09-09T05:48:57.199Z,1360.00
2018-09-09T05:49:57.199Z,1388.00
2018-09-09T05:50:57.196Z,1516.00
2018-09-09T05:51:57.196Z,1724.00
2018-09-09T05:52:57.195Z,1896.00
2018-09-09T05:53:57.283Z,1992.00
2018-09-09T05:54:57.192Z,2036.00
2018-09-09T05:55:57.198Z,2000.00
2018-09-09T05:56:57.188Z,2000.00
2018-09-09T05:57:57.187Z,2000.00
2018-09-09T05:58:57.192Z,2040.00
2018-09-09T05:59:57.187Z,2064.00
2018-09-09T06:00:57.182Z,2088.00
2018-09-09T06:01:57.184Z,2052.00
2018-09-09T06:02:57.183Z,2144.00
2018-09-09T06:03:57.182Z,2396.00
2018-09-09T06:04:57.179Z,2700.00
2018-09-09T06:05:57.179Z,2884.00
2018-09-09T06:06:57.177Z,2904.00
2018-09-09T06:07:57.180Z,2776.00
2018-09-09T06:08:57.177Z,2792.00
2018-09-09T06:09:57.176Z,2848.00
2018-09-09T06:10:57.175Z,2976.00
2018-09-09T06:11:57.174Z,3256.00
2018-09-09T06:12:57.176Z,3304.00
2018-09-09T06:13:57.173Z,3300.00
2018-09-09T06:14:57.171Z,3228.00
2018-09-09T06:15:57.170Z,3432.00
2018-09-09T06:16:57.170Z,3948.00
2018-09-09T06:17:57.171Z,4312.00
2018-09-09T06:18:57.169Z,4644.00
2018-09-09T06:19:57.168Z,4884.00
2018-09-09T06:20:57.167Z,4740.00
2018-09-09T06:21:57.166Z,4300.00
2018-09-09T06:22:57.167Z,3896.00
2018-09-09T06:23:57.167Z,3540.00
2018-09-09T06:24:57.164Z,3568.00
2018-09-09T06:25:57.165Z,3876.00
2018-09-09T06:26:57.163Z,4132.00
2018-09-09T06:27:57.164Z,4604.00
2018-09-09T06:28:57.163Z,4964.00
2018-09-09T06:29:57.161Z,5364.00
2018-09-09T06:30:57.162Z,5320.00
2018-09-09T06:31:57.162Z,5248.00
2018-09-09T06:32:57.165Z,5328.00
2018-09-09T06:33:57.208Z,5540.00
2018-09-09T06:34:57.161Z,5588.00
2018-09-09T06:35:57.160Z,5256.00
2018-09-09T06:36:57.160Z,4884.00
2018-09-09T06:37:57.159Z,4948.00
2018-09-09T06:38:57.186Z,5104.00
2018-09-09T06:39:57.159Z,4568.00
2018-09-09T06:40:57.159Z,3948.00
2018-09-09T06:41:57.159Z,3860.00
2018-09-09T06:42:57.159Z,3916.00
2018-09-09T06:43:57.158Z,4144.00
2018-09-09T06:44:57.160Z,4444.00
2018-09-09T06:45:57.159Z,4716.00
2018-09-09T06:46:57.159Z,5324.00
2018-09-09T06:47:57.967Z,6084.00
2018-09-09T06:48:57.159Z,6780.00
2018-09-09T06:49:57.157Z,7188.00
2018-09-09T06:50:57.160Z,7064.00
2018-09-09T06:51:57.160Z,6848.00
2018-09-09T06:52:57.159Z,6868.00
2018-09-09T06:53:57.159Z,6872.00
2018-09-09T06:54:57.186Z,7216.00
2018-09-09T06:55:57.160Z,7684.00
2018-09-09T06:56:57.160Z,7876.00
2018-09-09T06:57:57.161Z,7920.00
2018-09-09T06:58:57.161Z,7856.00
2018-09-09T06:59:57.161Z,7464.00
2018-09-09T07:00:57.162Z,6964.00
2018-09-09T07:01:57.161Z,6660.00
2018-09-09T07:02:57.162Z,6772.00
2018-09-09T07:03:57.165Z,7156.00
2018-09-09T07:04:57.164Z,7384.00
2018-09-09T07:05:57.164Z,7444.00
2018-09-09T07:06:57.164Z,7568.00
2018-09-09T07:07:57.166Z,7352.00
2018-09-09T07:08:57.166Z,6828.00
2018-09-09T07:09:57.167Z,6228.00
2018-09-09T07:10:57.270Z,5872.00
2018-09-09T07:11:57.268Z,5388.00
2018-09-09T07:12:57.171Z,4960.00
2018-09-09T07:13:57.169Z,4632.00
2018-09-09T07:14:57.171Z,4312.00
2018-09-09T07:15:57.176Z,4052.00
2018-09-09T07:16:57.185Z,3740.00
2018-09-09T07:17:57.176Z,3320.00
2018-09-09T07:18:57.221Z,2984.00
2018-09-09T07:19:57.178Z,2724.00
2018-09-09T07:20:57.178Z,2632.00
2018-09-09T07:21:57.179Z,2656.00
2018-09-09T07:22:57.181Z,2620.00
2018-09-09T07:23:57.181Z,2640.00
2018-09-09T07:24:57.182Z,2652.00
2018-09-09T07:25:57.183Z,2656.00
2018-09-09T07:26:57.184Z,2644.00
2018-09-09T07:27:57.185Z,2584.00
2018-09-09T07:28:57.185Z,2608.00
2018-09-09T07:29:57.185Z,2684.00
2018-09-09T07:30:57.189Z,2840.00
2018-09-09T07:31:57.189Z,3024.00
2018-09-09T07:32:57.192Z,3192.00
2018-09-09T07:33:57.190Z,3292.00
2018-09-09T07:34:57.193Z,3336.00
2018-09-09T07:35:57.192Z,3416.00
2018-09-09T07:36:57.192Z,3552.00
2018-09-09T07:37:57.192Z,3720.00
2018-09-09T07:38:57.195Z,3904.00
2018-09-09T07:39:57.195Z,4024.00
2018-09-09T07:40:57.196Z,4020.00
2018-09-09T07:41:57.196Z,3948.00
2018-09-09T07:42:57.198Z,3888.00
2018-09-09T07:43:57.199Z,3928.00
2018-09-09T07:44:57.199Z,4016.00
2018-09-09T07:45:57.199Z,4060.00
2018-09-09T07:46:57.200Z,4076.00
2018-09-09T07:47:57.225Z,4268.00
2018-09-09T07:48:57.202Z,4632.00
2018-09-09T07:49:57.204Z,5072.00
2018-09-09T07:50:57.203Z,5612.00
2018-09-09T07:51:57.204Z,6328.00
2018-09-09T07:52:57.204Z,6936.00
2018-09-09T07:53:57.204Z,7448.00
2018-09-09T07:54:57.206Z,7980.00
2018-09-09T07:55:57.208Z,7960.00
2018-09-09T07:56:57.208Z,7176.00
2018-09-09T07:57:57.209Z,6788.00
2018-09-09T07:58:57.213Z,6552.00
2018-09-09T07:59:57.212Z,6220.00
2018-09-09T08:00:57.210Z,5672.00
2018-09-09T08:01:57.214Z,5344.00
2018-09-09T08:02:57.216Z,5224.00
2018-09-09T08:03:57.214Z,5192.00
2018-09-09T08:04:57.216Z,5236.00
2018-09-09T08:05:57.217Z,5124.00
2018-09-09T08:06:57.218Z,5032.00
2018-09-09T08:07:57.219Z,4996.00
2018-09-09T08:08:57.219Z,4952.00
2018-09-09T08:09:57.221Z,5132.00
2018-09-09T08:10:57.223Z,5844.00
2018-09-09T08:11:57.259Z,6708.00
2018-09-09T08:12:57.224Z,7820.00
2018-09-09T08:13:57.227Z,9560.00
2018-09-09T08:14:57.233Z,11244.00
2018-09-09T08:15:57.228Z,12716.00
2018-09-09T08:16:57.229Z,13688.00
2018-09-09T08:17:57.232Z,13828.00
2018-09-09T08:18:57.233Z,13532.00
2018-09-09T08:19:57.237Z,13208.00
2018-09-09T08:20:57.236Z,12892.00
2018-09-09T08:21:57.238Z,12648.00
2018-09-09T08:22:57.239Z,12960.00
2018-09-09T08:23:57.242Z,13684.00
2018-09-09T08:24:57.243Z,14664.00
2018-09-09T08:25:57.244Z,14752.00
2018-09-09T08:26:57.253Z,14480.00
2018-09-09T08:27:57.249Z,14836.00
2018-09-09T08:28:57.251Z,15148.00
2018-09-09T08:29:57.252Z,15036.00
2018-09-09T08:30:57.255Z,14084.00
2018-09-09T08:31:57.257Z,13312.00
2018-09-09T08:32:57.261Z,12904.00
2018-09-09T08:33:57.262Z,12716.00
2018-09-09T08:34:57.265Z,12676.00
2018-09-09T08:35:57.267Z,12932.00
2018-09-09T08:36:57.270Z,12528.00
2018-09-09T08:37:57.277Z,13556.00
2018-09-09T08:38:57.275Z,15792.00
2018-09-09T08:39:57.278Z,14460.00
2018-09-09T08:40:57.282Z,15640.00
2018-09-09T08:41:57.284Z,17344.00
2018-09-09T08:42:57.286Z,15752.00
2018-09-09T08:43:57.292Z,13992.00
2018-09-09T08:44:57.293Z,13968.00
2018-09-09T08:45:57.295Z,15292.00
2018-09-09T08:46:57.299Z,13860.00
2018-09-09T08:47:57.301Z,16332.00
2018-09-09T08:48:57.304Z,14840.00
2018-09-09T08:49:57.306Z,16316.00
2018-09-09T08:50:57.312Z,15040.00
2018-09-09T08:51:57.409Z,15980.00
2018-09-09T08:52:57.317Z,17856.00
2018-09-09T08:53:57.321Z,21888.00
2018-09-09T08:54:57.324Z,17728.00
2018-09-09T08:55:57.329Z,14784.00
2018-09-09T08:56:57.330Z,14380.00
2018-09-09T08:57:57.334Z,14972.00
2018-09-09T08:58:57.341Z,15800.00
2018-09-09T08:59:57.343Z,15704.00
2018-09-09T09:00:57.346Z,15268.00
2018-09-09T09:01:57.349Z,15512.00
2018-09-09T09:02:57.352Z,15720.00
2018-09-09T09:03:57.357Z,16336.00
2018-09-09T09:04:57.359Z,17792.00
2018-09-09T09:05:57.363Z,17312.00
2018-09-09T09:06:57.367Z,19232.00
2018-09-09T09:07:57.419Z,22912.00
2018-09-09T09:08:57.375Z,33664.00
2018-09-09T09:09:57.380Z,27136.00
2018-09-09T09:10:57.429Z,20960.00
2018-09-09T09:11:57.389Z,20768.00
2018-09-09T09:12:57.391Z,17152.00
2018-09-09T09:13:57.396Z,18016.00
2018-09-09T09:14:57.401Z,17856.00
2018-09-09T09:15:57.407Z,18976.00
2018-09-09T09:16:57.410Z,19904.00
2018-09-09T09:17:57.415Z,19872.00
2018-09-09T09:18:57.422Z,23328.00
2018-09-09T09:19:57.425Z,20512.00
2018-09-09T09:20:57.431Z,21568.00
2018-09-09T09:21:57.437Z,19712.00
2018-09-09T09:22:57.440Z,22400.00
2018-09-09T09:23:57.447Z,17600.00
2018-09-09T09:24:57.452Z,17920.00
2018-09-09T09:25:57.457Z,17152.00
2018-09-09T09:26:57.464Z,15800.00
2018-09-09T09:27:57.469Z,15600.00
2018-09-09T09:28:57.474Z,15056.00
2018-09-09T09:29:57.481Z,14368.00
2018-09-09T09:30:57.486Z,14740.00
2018-09-09T09:31:57.494Z,14776.00
2018-09-09T09:32:57.499Z,18176.00
2018-09-09T09:33:57.504Z,23616.00
2018-09-09T09:34:57.510Z,22816.00
2018-09-09T09:35:57.517Z,26240.00
2018-09-09T09:36:57.522Z,23200.00
2018-09-09T09:37:57.528Z,26656.00
2018-09-09T09:38:57.534Z,26848.00
2018-09-09T09:39:57.539Z,20064.00
2018-09-09T09:40:57.546Z,36288.00
2018-09-09T09:41:57.551Z,23392.00
2018-09-09T09:42:57.559Z,21472.00
2018-09-09T09:43:57.565Z,16640.00
2018-09-09T09:44:57.571Z,17344.00
2018-09-09T09:45:57.577Z,15968.00
2018-09-09T09:46:57.585Z,14452.00
2018-09-09T09:47:57.592Z,12844.00
2018-09-09T09:48:57.598Z,13472.00
2018-09-09T09:49:57.603Z,12652.00
2018-09-09T09:50:57.610Z,13140.00
2018-09-09T09:51:57.618Z,12916.00
2018-09-09T09:52:57.624Z,14168.00
2018-09-09T09:53:57.632Z,15352.00
2018-09-09T09:54:57.662Z,17888.00
2018-09-09T09:55:57.642Z,16320.00
2018-09-09T09:56:57.650Z,16348.00
2018-09-09T09:57:57.655Z,18656.00
2018-09-09T09:58:57.662Z,18464.00
2018-09-09T09:59:57.669Z,15692.00
2018-09-09T10:00:57.674Z,23168.00
2018-09-09T10:01:57.680Z,26432.00
2018-09-09T10:02:57.687Z,26496.00
2018-09-09T10:03:57.694Z,36608.00
2018-09-09T10:04:57.699Z,35168.00
2018-09-09T10:05:57.705Z,33824.00
2018-09-09T10:06:57.713Z,31200.00
2018-09-09T10:07:57.719Z,30976.00
2018-09-09T10:08:57.747Z,36288.00
2018-09-09T10:09:57.733Z,36480.00
2018-09-09T10:10:57.742Z,22560.00
2018-09-09T10:11:57.748Z,31776.00
2018-09-09T10:12:57.756Z,36064.00
2018-09-09T10:13:57.762Z,41824.00
2018-09-09T10:14:57.777Z,44512.00
2018-09-09T10:15:57.782Z,48224.00
2018-09-09T10:16:57.789Z,57056.00
2018-09-09T10:17:57.795Z,48800.00
2018-09-09T10:18:57.804Z,28960.00
2018-09-09T10:19:57.813Z,47488.00
2018-09-09T10:20:57.820Z,72992.00
2018-09-09T10:21:57.830Z,55488.00
2018-09-09T10:22:57.842Z,47552.00
2018-09-09T10:23:57.849Z,55360.00
2018-09-09T10:24:57.857Z,28480.00
2018-09-09T10:25:57.866Z,16488.00
2018-09-09T10:26:57.880Z,19552.00
2018-09-09T10:27:57.886Z,11108.00
2018-09-09T10:28:57.895Z,11612.00
2018-09-09T10:29:57.940Z,18336.00
2018-09-09T10:30:57.914Z,18048.00
2018-09-09T10:31:57.923Z,19680.00
2018-09-09T10:32:57.932Z,23168.00
2018-09-09T10:33:57.940Z,23872.00
2018-09-09T10:34:57.951Z,19168.00
2018-09-09T10:35:57.962Z,16240.00
2018-09-09T10:36:57.966Z,16480.00
2018-09-09T10:37:57.975Z,15664.00
2018-09-09T10:38:57.986Z,16896.00
2018-09-09T10:39:57.992Z,13720.00
2018-09-09T10:40:58.044Z,12160.00
2018-09-09T10:41:58.013Z,12148.00
2018-09-09T10:42:58.017Z,13204.00
2018-09-09T10:43:58.026Z,11232.00
2018-09-09T10:44:58.032Z,12736.00
2018-09-09T10:45:58.073Z,11968.00
2018-09-09T10:46:58.058Z,11256.00
2018-09-09T10:47:58.058Z,10264.00
2018-09-09T10:48:58.066Z,9436.00
2018-09-09T10:49:58.072Z,10428.00
2018-09-09T10:50:58.082Z,11360.00
2018-09-09T10:51:58.088Z,10948.00
2018-09-09T10:52:58.094Z,10332.00
2018-09-09T10:53:58.101Z,10288.00
2018-09-09T10:54:58.109Z,10448.00
2018-09-09T10:55:58.121Z,10544.00
2018-09-09T10:56:58.123Z,10920.00
2018-09-09T10:57:58.130Z,10828.00
2018-09-09T10:58:58.137Z,10604.00
2018-09-09T10:59:58.144Z,10516.00
2018-09-09T11:00:58.149Z,10692.00
2018-09-09T11:01:58.155Z,10804.00
2018-09-09T11:02:58.169Z,11192.00
2018-09-09T11:03:58.170Z,12584.00
2018-09-09T11:04:58.177Z,12492.00
2018-09-09T11:05:58.181Z,12680.00
2018-09-09T11:06:58.191Z,12372.00
2018-09-09T11:07:58.192Z,12332.00
2018-09-09T11:08:58.198Z,12276.00
2018-09-09T11:09:58.206Z,12100.00
2018-09-09T11:10:58.209Z,11704.00
2018-09-09T11:11:58.217Z,11360.00
2018-09-09T11:12:58.288Z,11004.00
2018-09-09T11:13:58.230Z,10552.00
2018-09-09T11:14:58.233Z,10564.00
2018-09-09T11:15:58.242Z,10636.00
2018-09-09T11:16:58.243Z,10904.00
2018-09-09T11:17:58.253Z,12172.00
2018-09-09T11:18:58.333Z,12624.00
2018-09-09T11:19:58.261Z,12328.00
2018-09-09T11:20:58.266Z,12292.00
2018-09-09T11:21:58.274Z,12276.00
2018-09-09T11:22:58.279Z,11680.00
2018-09-09T11:23:58.304Z,12516.00
2018-09-09T11:24:58.288Z,12084.00
2018-09-09T11:25:58.292Z,11672.00
2018-09-09T11:26:58.300Z,10736.00
2018-09-09T11:27:58.306Z,11680.00
2018-09-09T11:28:58.309Z,11752.00
2018-09-09T11:29:58.386Z,11388.00
2018-09-09T11:30:58.323Z,10064.00
2018-09-09T11:31:58.327Z,11036.00
2018-09-09T11:32:58.331Z,10572.00
2018-09-09T11:33:58.338Z,10712.00
2018-09-09T11:34:58.343Z,9836.00
2018-09-09T11:35:58.353Z,8508.00
2018-09-09T11:36:58.353Z,8484.00
2018-09-09T11:37:58.359Z,8416.00
2018-09-09T11:38:58.364Z,7696.00
2018-09-09T11:39:58.371Z,6784.00
2018-09-09T11:40:58.376Z,5488.00
2018-09-09T11:41:58.380Z,5200.00
2018-09-09T11:42:58.387Z,5356.00
2018-09-09T11:43:58.392Z,5536.00
2018-09-09T11:44:58.397Z,6104.00
2018-09-09T11:45:58.403Z,6636.00
2018-09-09T11:46:58.408Z,6444.00
2018-09-09T11:47:58.412Z,6372.00
2018-09-09T11:48:58.416Z,6040.00
2018-09-09T11:49:58.421Z,5684.00
2018-09-09T11:50:58.428Z,5516.00
2018-09-09T11:51:58.433Z,5332.00
2018-09-09T11:52:58.465Z,5052.00
2018-09-09T11:53:58.442Z,5156.00
2018-09-09T11:54:58.446Z,4984.00
2018-09-09T11:55:58.456Z,5328.00
2018-09-09T11:56:58.456Z,5380.00
2018-09-09T11:57:58.461Z,5380.00
2018-09-09T11:58:58.466Z,5344.00
2018-09-09T11:59:58.472Z,5384.00
2018-09-09T12:00:58.476Z,5372.00
2018-09-09T12:01:58.513Z,5344.00
2018-09-09T12:02:58.486Z,5316.00
2018-09-09T12:03:58.493Z,5244.00
2018-09-09T12:04:58.492Z,5244.00
2018-09-09T12:05:58.500Z,5216.00
2018-09-09T12:06:58.503Z,5188.00
2018-09-09T12:07:58.507Z,5116.00
2018-09-09T12:08:58.511Z,5128.00
2018-09-09T12:09:58.515Z,5112.00
2018-09-09T12:10:58.520Z,5084.00
2018-09-09T12:11:58.524Z,5060.00
2018-09-09T12:12:58.528Z,5080.00
2018-09-09T12:13:58.533Z,5088.00
2018-09-09T12:14:58.538Z,5072.00
2018-09-09T12:15:58.547Z,5032.00
2018-09-09T12:16:58.548Z,5068.00
2018-09-09T12:17:58.549Z,5052.00
2018-09-09T12:18:58.555Z,4992.00
2018-09-09T12:19:58.559Z,5032.00
2018-09-09T12:20:58.560Z,5020.00
2018-09-09T12:21:58.567Z,5020.00
2018-09-09T12:22:58.575Z,5012.00
2018-09-09T12:23:58.575Z,4992.00
2018-09-09T12:24:58.578Z,5004.00
2018-09-09T12:25:58.586Z,4856.00
2018-09-09T12:26:58.587Z,4896.00
2018-09-09T12:27:58.592Z,5060.00